sensor_id;sensor_type;location;lat;lon;timestamp;temperature;humidity
20231;DHT22;10274;49.022;9.338;2023-05-29T00:02:08;17.20;1.00
20231;DHT22;10274;49.022;9.338;2023-05-29T00:04:34;17.20;1.00
20231;DHT22;10274;49.022;9.338;2023-05-29T00:07:03;17.10;1.00
20231;DHT22;10274;49.022;9.338;2023-05-29T00:09:31;17.00;1.00
20231;DHT22;10274;49.022;9.338;2023-05-29T00:11:58;16.90;1.00
20231;DHT22;10274;49.022;9.338;2023-05-29T00:14:25;17.00;1.00
20231;DHT22;10274;49.022;9.338;2023-05-29T00:16:51;17.00;1.00
20231;DHT22;10274;49.022;9.338;2023-05-29T00:19:18;17.00;1.00
20231;DHT22;10274;49.022;9.338;2023-05-29T00:21:45;17.10;1.00
20231;DHT22;10274;49.022;9.338;2023-05-29T00:24:13;17.00;1.00
20231;DHT22;10274;49.022;9.338;2023-05-29T00:26:41;17.10;1.00
20231;DHT22;10274;49.022;9.338;2023-05-29T00:29:08;17.00;1.00
20231;DHT22;10274;49.022;9.338;2023-05-29T00:31:34;17.10;1.00
20231;DHT22;10274;49.022;9.338;2023-05-29T00:34:02;17.00;1.00
20231;DHT22;10274;49.022;9.338;2023-05-29T00:36:29;17.00;1.00
20231;DHT22;10274;49.022;9.338;2023-05-29T00:38:57;17.10;1.00
20231;DHT22;10274;49.022;9.338;2023-05-29T00:41:23;17.00;1.00
20231;DHT22;10274;49.022;9.338;2023-05-29T00:43:51;16.90;1.00
20231;DHT22;10274;49.022;9.338;2023-05-29T00:46:18;16.90;1.00
20231;DHT22;10274;49.022;9.338;2023-05-29T00:48:46;16.90;1.00
20231;DHT22;10274;49.022;9.338;2023-05-29T00:51:14;16.90;1.00
20231;DHT22;10274;49.022;9.338;2023-05-29T00:53:42;16.90;1.00
20231;DHT22;10274;49.022;9.338;2023-05-29T00:56:10;17.00;1.00
20231;DHT22;10274;49.022;9.338;2023-05-29T00:58:37;16.90;1.00
20231;DHT22;10274;49.022;9.338;2023-05-29T01:01:05;16.90;1.00
20231;DHT22;10274;49.022;9.338;2023-05-29T01:03:32;16.90;1.00
20231;DHT22;10274;49.022;9.338;2023-05-29T01:06:01;16.80;1.00
20231;DHT22;10274;49.022;9.338;2023-05-29T01:08:28;16.80;1.00
20231;DHT22;10274;49.022;9.338;2023-05-29T01:11:01;16.70;1.00
20231;DHT22;10274;49.022;9.338;2023-05-29T01:13:31;16.70;1.00
20231;DHT22;10274;49.022;9.338;2023-05-29T01:16:05;16.60;1.00
20231;DHT22;10274;49.022;9.338;2023-05-29T01:18:41;16.40;1.00
20231;DHT22;10274;49.022;9.338;2023-05-29T01:21:17;16.30;1.00
20231;DHT22;10274;49.022;9.338;2023-05-29T01:24:13;16.20;1.00
20231;DHT22;10274;49.022;9.338;2023-05-29T01:26:55;15.90;1.00
20231;DHT22;10274;49.022;9.338;2023-05-29T01:29:26;15.90;1.00
20231;DHT22;10274;49.022;9.338;2023-05-29T01:31:54;15.60;1.00
20231;DHT22;10274;49.022;9.338;2023-05-29T01:34:22;15.30;99.90
20231;DHT22;10274;49.022;9.338;2023-05-29T01:36:49;15.10;21.70
20231;DHT22;10274;49.022;9.338;2023-05-29T01:39:16;15.00;99.90
20231;DHT22;10274;49.022;9.338;2023-05-29T01:41:45;14.50;99.90
20231;DHT22;10274;49.022;9.338;2023-05-29T01:44:13;14.30;1.00
20231;DHT22;10274;49.022;9.338;2023-05-29T01:46:42;14.00;99.90
20231;DHT22;10274;49.022;9.338;2023-05-29T01:49:11;13.90;1.00
20231;DHT22;10274;49.022;9.338;2023-05-29T01:51:38;13.80;99.90
20231;DHT22;10274;49.022;9.338;2023-05-29T01:54:06;13.40;48.30
20231;DHT22;10274;49.022;9.338;2023-05-29T01:56:33;13.20;99.90
20231;DHT22;10274;49.022;9.338;2023-05-29T01:59:02;12.90;1.00
20231;DHT22;10274;49.022;9.338;2023-05-29T02:01:31;13.00;99.90
20231;DHT22;10274;49.022;9.338;2023-05-29T02:03:57;12.90;99.90
20231;DHT22;10274;49.022;9.338;2023-05-29T02:06:24;13.20;99.90
20231;DHT22;10274;49.022;9.338;2023-05-29T02:08:51;13.00;1.00
20231;DHT22;10274;49.022;9.338;2023-05-29T02:11:17;13.10;1.00
20231;DHT22;10274;49.022;9.338;2023-05-29T02:13:44;12.30;1.00
20231;DHT22;10274;49.022;9.338;2023-05-29T02:16:11;12.20;1.00
20231;DHT22;10274;49.022;9.338;2023-05-29T02:18:39;12.30;1.00
20231;DHT22;10274;49.022;9.338;2023-05-29T02:21:06;12.20;1.00
20231;DHT22;10274;49.022;9.338;2023-05-29T02:23:33;11.90;1.00
20231;DHT22;10274;49.022;9.338;2023-05-29T02:26:00;12.00;99.90
20231;DHT22;10274;49.022;9.338;2023-05-29T02:28:27;11.70;99.90
20231;DHT22;10274;49.022;9.338;2023-05-29T02:30:54;11.80;99.90
20231;DHT22;10274;49.022;9.338;2023-05-29T02:33:20;11.70;1.00
20231;DHT22;10274;49.022;9.338;2023-05-29T02:35:48;11.50;1.00
20231;DHT22;10274;49.022;9.338;2023-05-29T02:38:15;11.70;1.00
20231;DHT22;10274;49.022;9.338;2023-05-29T02:40:42;11.80;1.00
20231;DHT22;10274;49.022;9.338;2023-05-29T02:43:11;11.20;1.00
20231;DHT22;10274;49.022;9.338;2023-05-29T02:45:38;11.20;1.00
20231;DHT22;10274;49.022;9.338;2023-05-29T02:48:05;11.10;1.00
20231;DHT22;10274;49.022;9.338;2023-05-29T02:50:33;10.70;1.00
20231;DHT22;10274;49.022;9.338;2023-05-29T02:53:01;10.80;1.00
20231;DHT22;10274;49.022;9.338;2023-05-29T02:55:28;11.00;1.00
20231;DHT22;10274;49.022;9.338;2023-05-29T02:57:54;11.00;1.00
20231;DHT22;10274;49.022;9.338;2023-05-29T03:00:21;11.00;1.00
20231;DHT22;10274;49.022;9.338;2023-05-29T03:02:48;11.00;1.00
20231;DHT22;10274;49.022;9.338;2023-05-29T03:05:14;10.50;1.00
20231;DHT22;10274;49.022;9.338;2023-05-29T03:07:42;10.10;1.00
20231;DHT22;10274;49.022;9.338;2023-05-29T03:10:10;10.20;1.00
20231;DHT22;10274;49.022;9.338;2023-05-29T03:12:38;10.20;1.00
20231;DHT22;10274;49.022;9.338;2023-05-29T03:15:05;10.20;1.00
20231;DHT22;10274;49.022;9.338;2023-05-29T03:17:33;10.10;1.00
20231;DHT22;10274;49.022;9.338;2023-05-29T03:20:02;10.00;1.00
20231;DHT22;10274;49.022;9.338;2023-05-29T03:22:31;9.90;1.00
20231;DHT22;10274;49.022;9.338;2023-05-29T03:24:58;10.00;1.00
20231;DHT22;10274;49.022;9.338;2023-05-29T03:27:26;9.60;2.40
20231;DHT22;10274;49.022;9.338;2023-05-29T03:29:52;9.50;32.30
20231;DHT22;10274;49.022;9.338;2023-05-29T03:32:20;9.90;35.30
20231;DHT22;10274;49.022;9.338;2023-05-29T03:34:46;10.10;1.00
20231;DHT22;10274;49.022;9.338;2023-05-29T03:37:14;10.30;1.00
20231;DHT22;10274;49.022;9.338;2023-05-29T03:39:40;10.30;1.00
20231;DHT22;10274;49.022;9.338;2023-05-29T03:42:07;10.40;1.00
20231;DHT22;10274;49.022;9.338;2023-05-29T03:44:35;10.40;1.00
20231;DHT22;10274;49.022;9.338;2023-05-29T03:47:02;10.50;1.00
20231;DHT22;10274;49.022;9.338;2023-05-29T03:49:29;10.20;1.00
20231;DHT22;10274;49.022;9.338;2023-05-29T03:51:55;9.90;1.00
20231;DHT22;10274;49.022;9.338;2023-05-29T03:54:22;9.80;1.00
20231;DHT22;10274;49.022;9.338;2023-05-29T03:56:49;10.10;1.00
20231;DHT22;10274;49.022;9.338;2023-05-29T03:59:15;10.10;1.00
20231;DHT22;10274;49.022;9.338;2023-05-29T04:01:43;10.10;1.00
20231;DHT22;10274;49.022;9.338;2023-05-29T04:04:10;10.00;1.00
20231;DHT22;10274;49.022;9.338;2023-05-29T04:06:37;9.60;1.00
20231;DHT22;10274;49.022;9.338;2023-05-29T04:09:04;9.40;41.90
20231;DHT22;10274;49.022;9.338;2023-05-29T04:11:31;9.70;44.50
20231;DHT22;10274;49.022;9.338;2023-05-29T04:13:59;10.00;25.00
20231;DHT22;10274;49.022;9.338;2023-05-29T04:16:27;10.20;5.90
20231;DHT22;10274;49.022;9.338;2023-05-29T04:18:55;9.90;14.20
20231;DHT22;10274;49.022;9.338;2023-05-29T04:21:22;9.70;35.30
20231;DHT22;10274;49.022;9.338;2023-05-29T04:23:48;9.50;58.20
20231;DHT22;10274;49.022;9.338;2023-05-29T04:26:15;9.50;91.80
20231;DHT22;10274;49.022;9.338;2023-05-29T04:28:42;9.60;92.30
20231;DHT22;10274;49.022;9.338;2023-05-29T04:31:09;9.80;67.80
20231;DHT22;10274;49.022;9.338;2023-05-29T04:33:39;10.10;40.20
20231;DHT22;10274;49.022;9.338;2023-05-29T04:36:08;10.10;40.00
20231;DHT22;10274;49.022;9.338;2023-05-29T04:38:36;10.00;47.40
20231;DHT22;10274;49.022;9.338;2023-05-29T04:41:03;10.00;66.30
20231;DHT22;10274;49.022;9.338;2023-05-29T04:43:29;10.00;88.30
20231;DHT22;10274;49.022;9.338;2023-05-29T04:45:56;9.90;81.90
20231;DHT22;10274;49.022;9.338;2023-05-29T04:48:23;9.90;82.30
20231;DHT22;10274;49.022;9.338;2023-05-29T04:50:51;10.00;70.40
20231;DHT22;10274;49.022;9.338;2023-05-29T04:53:19;10.30;58.80
20231;DHT22;10274;49.022;9.338;2023-05-29T04:55:45;10.30;79.30
20231;DHT22;10274;49.022;9.338;2023-05-29T04:58:12;10.40;81.80
20231;DHT22;10274;49.022;9.338;2023-05-29T05:00:39;10.60;82.80
20231;DHT22;10274;49.022;9.338;2023-05-29T05:03:06;10.80;68.20
20231;DHT22;10274;49.022;9.338;2023-05-29T05:05:32;10.70;96.10
20231;DHT22;10274;49.022;9.338;2023-05-29T05:07:59;10.60;87.50
20231;DHT22;10274;49.022;9.338;2023-05-29T05:10:27;10.60;62.50
20231;DHT22;10274;49.022;9.338;2023-05-29T05:12:54;10.70;78.30
20231;DHT22;10274;49.022;9.338;2023-05-29T05:15:21;10.80;97.80
20231;DHT22;10274;49.022;9.338;2023-05-29T05:17:47;11.10;99.90
20231;DHT22;10274;49.022;9.338;2023-05-29T05:20:15;11.20;99.90
20231;DHT22;10274;49.022;9.338;2023-05-29T05:22:41;11.30;59.50
20231;DHT22;10274;49.022;9.338;2023-05-29T05:25:08;11.40;78.80
20231;DHT22;10274;49.022;9.338;2023-05-29T05:27:37;11.60;44.10
20231;DHT22;10274;49.022;9.338;2023-05-29T05:30:04;11.70;26.90
20231;DHT22;10274;49.022;9.338;2023-05-29T05:32:30;11.80;1.00
20231;DHT22;10274;49.022;9.338;2023-05-29T05:34:57;12.00;1.00
20231;DHT22;10274;49.022;9.338;2023-05-29T05:37:24;12.00;1.00
20231;DHT22;10274;49.022;9.338;2023-05-29T05:39:51;12.20;1.00
20231;DHT22;10274;49.022;9.338;2023-05-29T05:42:18;12.40;1.00
20231;DHT22;10274;49.022;9.338;2023-05-29T05:44:46;12.50;1.00
20231;DHT22;10274;49.022;9.338;2023-05-29T05:47:13;12.70;1.00
20231;DHT22;10274;49.022;9.338;2023-05-29T05:49:40;12.90;1.00
20231;DHT22;10274;49.022;9.338;2023-05-29T05:52:07;13.20;1.00
20231;DHT22;10274;49.022;9.338;2023-05-29T05:54:33;13.20;99.90
20231;DHT22;10274;49.022;9.338;2023-05-29T05:57:00;13.40;99.90
20231;DHT22;10274;49.022;9.338;2023-05-29T05:59:28;13.50;99.90
20231;DHT22;10274;49.022;9.338;2023-05-29T06:01:56;13.70;99.90
20231;DHT22;10274;49.022;9.338;2023-05-29T06:04:23;13.80;1.00
20231;DHT22;10274;49.022;9.338;2023-05-29T06:06:50;13.90;1.00
20231;DHT22;10274;49.022;9.338;2023-05-29T06:09:17;14.10;1.00
20231;DHT22;10274;49.022;9.338;2023-05-29T06:11:43;14.40;99.90
20231;DHT22;10274;49.022;9.338;2023-05-29T06:14:10;14.40;99.90
20231;DHT22;10274;49.022;9.338;2023-05-29T06:16:37;14.60;1.00
20231;DHT22;10274;49.022;9.338;2023-05-29T06:19:05;14.70;1.00
20231;DHT22;10274;49.022;9.338;2023-05-29T06:21:32;14.90;1.00
20231;DHT22;10274;49.022;9.338;2023-05-29T06:23:58;15.00;99.90
20231;DHT22;10274;49.022;9.338;2023-05-29T06:26:25;15.10;1.00
20231;DHT22;10274;49.022;9.338;2023-05-29T06:28:52;15.20;99.90
20231;DHT22;10274;49.022;9.338;2023-05-29T06:31:19;15.40;1.00
20231;DHT22;10274;49.022;9.338;2023-05-29T06:33:46;15.50;99.90
20231;DHT22;10274;49.022;9.338;2023-05-29T06:36:14;15.90;99.90
20231;DHT22;10274;49.022;9.338;2023-05-29T06:38:46;15.90;99.90
20231;DHT22;10274;49.022;9.338;2023-05-29T06:41:13;16.10;1.00
20231;DHT22;10274;49.022;9.338;2023-05-29T06:43:39;16.20;99.90
20231;DHT22;10274;49.022;9.338;2023-05-29T06:46:06;16.20;1.00
20231;DHT22;10274;49.022;9.338;2023-05-29T06:48:33;16.40;49.70
20231;DHT22;10274;49.022;9.338;2023-05-29T06:51:00;16.50;99.90
20231;DHT22;10274;49.022;9.338;2023-05-29T06:53:28;16.90;99.90
20231;DHT22;10274;49.022;9.338;2023-05-29T06:55:55;17.00;1.00
20231;DHT22;10274;49.022;9.338;2023-05-29T06:58:21;17.20;1.00
20231;DHT22;10274;49.022;9.338;2023-05-29T07:00:48;17.20;1.00
20231;DHT22;10274;49.022;9.338;2023-05-29T07:03:15;17.40;1.00
20231;DHT22;10274;49.022;9.338;2023-05-29T07:05:41;17.60;1.00
20231;DHT22;10274;49.022;9.338;2023-05-29T07:08:08;17.70;1.00
20231;DHT22;10274;49.022;9.338;2023-05-29T07:10:36;17.90;1.00
20231;DHT22;10274;49.022;9.338;2023-05-29T07:13:03;18.10;1.00
20231;DHT22;10274;49.022;9.338;2023-05-29T07:15:31;18.20;99.90
20231;DHT22;10274;49.022;9.338;2023-05-29T07:17:58;18.10;99.90
20231;DHT22;10274;49.022;9.338;2023-05-29T07:20:25;18.30;1.00
20231;DHT22;10274;49.022;9.338;2023-05-29T07:22:51;18.60;1.00
20231;DHT22;10274;49.022;9.338;2023-05-29T07:25:18;18.60;1.00
20231;DHT22;10274;49.022;9.338;2023-05-29T07:27:46;18.80;27.10
20231;DHT22;10274;49.022;9.338;2023-05-29T07:30:13;18.90;1.00
20231;DHT22;10274;49.022;9.338;2023-05-29T07:32:40;19.20;1.00
20231;DHT22;10274;49.022;9.338;2023-05-29T07:35:07;19.30;1.00
20231;DHT22;10274;49.022;9.338;2023-05-29T07:37:34;19.30;99.90
20231;DHT22;10274;49.022;9.338;2023-05-29T07:40:01;19.30;99.90
20231;DHT22;10274;49.022;9.338;2023-05-29T07:42:31;19.60;99.90
20231;DHT22;10274;49.022;9.338;2023-05-29T07:44:59;19.60;99.90
20231;DHT22;10274;49.022;9.338;2023-05-29T07:47:26;19.80;99.90
20231;DHT22;10274;49.022;9.338;2023-05-29T07:49:52;20.00;99.90
20231;DHT22;10274;49.022;9.338;2023-05-29T07:52:19;20.30;49.20
20231;DHT22;10274;49.022;9.338;2023-05-29T07:54:46;20.50;1.00
20231;DHT22;10274;49.022;9.338;2023-05-29T07:57:12;20.80;1.00
20231;DHT22;10274;49.022;9.338;2023-05-29T07:59:41;21.00;1.00
20231;DHT22;10274;49.022;9.338;2023-05-29T08:02:09;22.30;1.00
20231;DHT22;10274;49.022;9.338;2023-05-29T08:04:36;22.60;99.90
20231;DHT22;10274;49.022;9.338;2023-05-29T08:07:03;22.10;99.90
20231;DHT22;10274;49.022;9.338;2023-05-29T08:09:30;22.30;99.90
20231;DHT22;10274;49.022;9.338;2023-05-29T08:11:56;23.00;99.90
20231;DHT22;10274;49.022;9.338;2023-05-29T08:14:25;23.80;99.90
20231;DHT22;10274;49.022;9.338;2023-05-29T08:16:52;24.10;1.00
20231;DHT22;10274;49.022;9.338;2023-05-29T08:19:20;24.50;1.00
20231;DHT22;10274;49.022;9.338;2023-05-29T08:21:46;25.20;1.00
20231;DHT22;10274;49.022;9.338;2023-05-29T08:24:13;25.10;1.00
20231;DHT22;10274;49.022;9.338;2023-05-29T08:26:40;25.70;1.00
20231;DHT22;10274;49.022;9.338;2023-05-29T08:29:08;25.60;99.90
20231;DHT22;10274;49.022;9.338;2023-05-29T08:31:35;26.10;99.90
20231;DHT22;10274;49.022;9.338;2023-05-29T08:34:02;26.10;99.90
20231;DHT22;10274;49.022;9.338;2023-05-29T08:36:30;26.50;99.90
20231;DHT22;10274;49.022;9.338;2023-05-29T08:38:57;26.90;99.90
20231;DHT22;10274;49.022;9.338;2023-05-29T08:41:28;27.90;99.90
20231;DHT22;10274;49.022;9.338;2023-05-29T08:43:58;28.00;99.90
20231;DHT22;10274;49.022;9.338;2023-05-29T08:46:27;28.10;99.90
20231;DHT22;10274;49.022;9.338;2023-05-29T08:48:58;28.30;99.90
20231;DHT22;10274;49.022;9.338;2023-05-29T08:51:32;28.00;99.90
20231;DHT22;10274;49.022;9.338;2023-05-29T08:53:59;27.60;82.90
20231;DHT22;10274;49.022;9.338;2023-05-29T08:56:27;27.70;60.60
20231;DHT22;10274;49.022;9.338;2023-05-29T08:58:54;27.80;66.60
20231;DHT22;10274;49.022;9.338;2023-05-29T09:01:22;28.30;28.90
20231;DHT22;10274;49.022;9.338;2023-05-29T09:03:49;28.00;17.40
20231;DHT22;10274;49.022;9.338;2023-05-29T09:06:16;28.60;23.60
20231;DHT22;10274;49.022;9.338;2023-05-29T09:08:44;29.00;15.10
20231;DHT22;10274;49.022;9.338;2023-05-29T09:11:12;29.00;7.80
20231;DHT22;10274;49.022;9.338;2023-05-29T09:13:38;28.80;1.00
20231;DHT22;10274;49.022;9.338;2023-05-29T09:16:07;29.30;1.50
20231;DHT22;10274;49.022;9.338;2023-05-29T09:18:34;29.40;1.00
20231;DHT22;10274;49.022;9.338;2023-05-29T09:21:06;29.30;1.00
20231;DHT22;10274;49.022;9.338;2023-05-29T09:23:34;28.80;1.00
20231;DHT22;10274;49.022;9.338;2023-05-29T09:26:03;29.00;1.00
20231;DHT22;10274;49.022;9.338;2023-05-29T09:28:30;29.00;1.00
20231;DHT22;10274;49.022;9.338;2023-05-29T09:30:58;29.10;1.00
20231;DHT22;10274;49.022;9.338;2023-05-29T09:33:25;29.00;1.00
20231;DHT22;10274;49.022;9.338;2023-05-29T09:35:52;29.10;1.00
20231;DHT22;10274;49.022;9.338;2023-05-29T09:38:19;28.90;1.00
20231;DHT22;10274;49.022;9.338;2023-05-29T09:40:46;29.10;1.00
20231;DHT22;10274;49.022;9.338;2023-05-29T09:43:15;29.40;1.00
20231;DHT22;10274;49.022;9.338;2023-05-29T09:45:43;29.30;1.00
20231;DHT22;10274;49.022;9.338;2023-05-29T09:48:12;29.20;1.00
20231;DHT22;10274;49.022;9.338;2023-05-29T09:50:39;29.50;1.00
20231;DHT22;10274;49.022;9.338;2023-05-29T09:53:16;29.20;1.00
20231;DHT22;10274;49.022;9.338;2023-05-29T09:55:44;29.70;1.00
20231;DHT22;10274;49.022;9.338;2023-05-29T09:58:13;29.60;1.00
20231;DHT22;10274;49.022;9.338;2023-05-29T10:00:41;29.60;1.00
20231;DHT22;10274;49.022;9.338;2023-05-29T10:03:08;29.20;1.00
20231;DHT22;10274;49.022;9.338;2023-05-29T10:05:37;29.00;1.00
20231;DHT22;10274;49.022;9.338;2023-05-29T10:08:05;29.40;1.00
20231;DHT22;10274;49.022;9.338;2023-05-29T10:10:34;29.80;1.00
20231;DHT22;10274;49.022;9.338;2023-05-29T10:13:01;29.80;1.00
20231;DHT22;10274;49.022;9.338;2023-05-29T10:15:31;29.70;1.00
20231;DHT22;10274;49.022;9.338;2023-05-29T10:18:02;30.00;1.00
20231;DHT22;10274;49.022;9.338;2023-05-29T10:20:30;29.50;1.00
20231;DHT22;10274;49.022;9.338;2023-05-29T10:23:00;29.80;1.00
20231;DHT22;10274;49.022;9.338;2023-05-29T10:25:27;30.10;1.00
20231;DHT22;10274;49.022;9.338;2023-05-29T10:27:55;29.50;1.00
20231;DHT22;10274;49.022;9.338;2023-05-29T10:30:30;29.50;1.00
20231;DHT22;10274;49.022;9.338;2023-05-29T10:33:28;29.20;1.00
20231;DHT22;10274;49.022;9.338;2023-05-29T10:36:04;29.50;1.00
20231;DHT22;10274;49.022;9.338;2023-05-29T10:38:33;30.00;1.00
20231;DHT22;10274;49.022;9.338;2023-05-29T10:41:31;30.00;1.00
20231;DHT22;10274;49.022;9.338;2023-05-29T10:43:59;30.00;1.00
20231;DHT22;10274;49.022;9.338;2023-05-29T10:47:03;30.00;1.00
20231;DHT22;10274;49.022;9.338;2023-05-29T10:49:32;30.10;1.00
20231;DHT22;10274;49.022;9.338;2023-05-29T10:52:00;30.10;1.00
20231;DHT22;10274;49.022;9.338;2023-05-29T10:54:26;29.70;1.00
20231;DHT22;10274;49.022;9.338;2023-05-29T10:56:56;29.40;1.00
20231;DHT22;10274;49.022;9.338;2023-05-29T10:59:23;29.60;1.00
20231;DHT22;10274;49.022;9.338;2023-05-29T11:01:53;29.50;1.00
20231;DHT22;10274;49.022;9.338;2023-05-29T11:04:28;29.80;1.00
20231;DHT22;10274;49.022;9.338;2023-05-29T11:06:57;30.00;1.00
20231;DHT22;10274;49.022;9.338;2023-05-29T11:09:28;30.10;1.00
20231;DHT22;10274;49.022;9.338;2023-05-29T11:12:14;29.90;1.00
20231;DHT22;10274;49.022;9.338;2023-05-29T11:14:54;29.80;1.00
20231;DHT22;10274;49.022;9.338;2023-05-29T11:17:31;29.70;1.00
20231;DHT22;10274;49.022;9.338;2023-05-29T11:20:02;29.70;1.00
20231;DHT22;10274;49.022;9.338;2023-05-29T11:22:45;29.80;1.00
20231;DHT22;10274;49.022;9.338;2023-05-29T11:25:15;29.80;1.00
20231;DHT22;10274;49.022;9.338;2023-05-29T11:27:43;29.90;1.00
20231;DHT22;10274;49.022;9.338;2023-05-29T11:30:11;30.00;1.00
20231;DHT22;10274;49.022;9.338;2023-05-29T11:32:40;30.10;1.00
20231;DHT22;10274;49.022;9.338;2023-05-29T11:35:10;29.90;1.00
20231;DHT22;10274;49.022;9.338;2023-05-29T11:37:39;29.90;1.00
20231;DHT22;10274;49.022;9.338;2023-05-29T11:40:08;30.10;1.00
20231;DHT22;10274;49.022;9.338;2023-05-29T11:42:41;29.90;1.00
20231;DHT22;10274;49.022;9.338;2023-05-29T11:45:12;29.90;1.00
20231;DHT22;10274;49.022;9.338;2023-05-29T11:47:52;29.50;1.00
20231;DHT22;10274;49.022;9.338;2023-05-29T11:50:21;29.40;1.00
20231;DHT22;10274;49.022;9.338;2023-05-29T11:52:48;29.50;1.00
20231;DHT22;10274;49.022;9.338;2023-05-29T11:55:17;29.30;1.00
20231;DHT22;10274;49.022;9.338;2023-05-29T11:57:46;28.90;1.00
20231;DHT22;10274;49.022;9.338;2023-05-29T12:00:13;28.90;1.00
20231;DHT22;10274;49.022;9.338;2023-05-29T12:02:41;29.00;1.00
20231;DHT22;10274;49.022;9.338;2023-05-29T12:05:09;28.90;1.00
20231;DHT22;10274;49.022;9.338;2023-05-29T12:07:47;28.90;1.00
20231;DHT22;10274;49.022;9.338;2023-05-29T12:10:15;28.70;1.00
20231;DHT22;10274;49.022;9.338;2023-05-29T12:12:42;28.70;1.00
20231;DHT22;10274;49.022;9.338;2023-05-29T12:15:13;28.50;1.00
20231;DHT22;10274;49.022;9.338;2023-05-29T12:17:40;28.60;1.00
20231;DHT22;10274;49.022;9.338;2023-05-29T12:20:08;28.40;1.00
20231;DHT22;10274;49.022;9.338;2023-05-29T12:22:36;28.40;1.00
20231;DHT22;10274;49.022;9.338;2023-05-29T12:25:06;28.50;1.00
20231;DHT22;10274;49.022;9.338;2023-05-29T12:27:33;28.60;1.00
20231;DHT22;10274;49.022;9.338;2023-05-29T12:30:03;28.70;1.00
20231;DHT22;10274;49.022;9.338;2023-05-29T12:32:35;28.40;1.00
20231;DHT22;10274;49.022;9.338;2023-05-29T12:35:10;28.50;1.00
20231;DHT22;10274;49.022;9.338;2023-05-29T12:37:42;28.60;1.00
20231;DHT22;10274;49.022;9.338;2023-05-29T12:40:12;28.70;1.00
20231;DHT22;10274;49.022;9.338;2023-05-29T12:42:40;28.80;1.00
20231;DHT22;10274;49.022;9.338;2023-05-29T12:45:07;28.70;1.00
20231;DHT22;10274;49.022;9.338;2023-05-29T12:47:35;28.80;1.00
20231;DHT22;10274;49.022;9.338;2023-05-29T12:50:09;28.80;1.00
20231;DHT22;10274;49.022;9.338;2023-05-29T12:52:41;28.30;1.00
20231;DHT22;10274;49.022;9.338;2023-05-29T12:55:09;28.20;1.00
20231;DHT22;10274;49.022;9.338;2023-05-29T12:57:36;28.40;1.00
20231;DHT22;10274;49.022;9.338;2023-05-29T13:00:03;28.20;1.00
20231;DHT22;10274;49.022;9.338;2023-05-29T13:02:32;28.60;1.00
20231;DHT22;10274;49.022;9.338;2023-05-29T13:04:59;28.90;1.00
20231;DHT22;10274;49.022;9.338;2023-05-29T13:07:25;28.80;1.00
20231;DHT22;10274;49.022;9.338;2023-05-29T13:09:53;28.60;1.00
20231;DHT22;10274;49.022;9.338;2023-05-29T13:12:21;28.50;1.00
20231;DHT22;10274;49.022;9.338;2023-05-29T13:14:48;28.80;1.00
20231;DHT22;10274;49.022;9.338;2023-05-29T13:17:15;28.30;1.00
20231;DHT22;10274;49.022;9.338;2023-05-29T13:19:42;28.10;1.00
20231;DHT22;10274;49.022;9.338;2023-05-29T13:22:09;28.40;1.00
20231;DHT22;10274;49.022;9.338;2023-05-29T13:24:36;28.30;1.00
20231;DHT22;10274;49.022;9.338;2023-05-29T13:27:03;28.00;1.00
20231;DHT22;10274;49.022;9.338;2023-05-29T13:29:32;27.90;1.00
20231;DHT22;10274;49.022;9.338;2023-05-29T13:31:58;27.80;1.00
20231;DHT22;10274;49.022;9.338;2023-05-29T13:34:25;27.80;1.00
20231;DHT22;10274;49.022;9.338;2023-05-29T13:36:54;28.00;1.00
20231;DHT22;10274;49.022;9.338;2023-05-29T13:39:20;27.80;1.00
20231;DHT22;10274;49.022;9.338;2023-05-29T13:41:47;28.00;1.00
20231;DHT22;10274;49.022;9.338;2023-05-29T13:44:14;28.00;1.00
20231;DHT22;10274;49.022;9.338;2023-05-29T13:46:42;27.90;1.00
20231;DHT22;10274;49.022;9.338;2023-05-29T13:49:09;27.60;1.00
20231;DHT22;10274;49.022;9.338;2023-05-29T13:51:36;27.30;1.00
20231;DHT22;10274;49.022;9.338;2023-05-29T13:54:03;27.30;1.00
20231;DHT22;10274;49.022;9.338;2023-05-29T13:56:30;27.30;1.00
20231;DHT22;10274;49.022;9.338;2023-05-29T13:58:57;27.20;1.00
20231;DHT22;10274;49.022;9.338;2023-05-29T14:01:29;27.20;1.00
20231;DHT22;10274;49.022;9.338;2023-05-29T14:03:57;27.30;1.00
20231;DHT22;10274;49.022;9.338;2023-05-29T14:06:24;27.30;1.00
20231;DHT22;10274;49.022;9.338;2023-05-29T14:08:50;27.20;1.00
20231;DHT22;10274;49.022;9.338;2023-05-29T14:11:17;27.30;1.00
20231;DHT22;10274;49.022;9.338;2023-05-29T14:13:44;27.30;1.00
20231;DHT22;10274;49.022;9.338;2023-05-29T14:16:11;27.10;1.00
20231;DHT22;10274;49.022;9.338;2023-05-29T14:18:39;27.10;1.00
20231;DHT22;10274;49.022;9.338;2023-05-29T14:21:08;27.10;1.00
20231;DHT22;10274;49.022;9.338;2023-05-29T14:23:35;26.90;1.00
20231;DHT22;10274;49.022;9.338;2023-05-29T14:26:02;27.10;1.00
20231;DHT22;10274;49.022;9.338;2023-05-29T14:28:29;27.10;1.00
20231;DHT22;10274;49.022;9.338;2023-05-29T14:30:56;26.80;1.00
20231;DHT22;10274;49.022;9.338;2023-05-29T14:33:22;26.70;1.00
20231;DHT22;10274;49.022;9.338;2023-05-29T14:35:50;26.80;1.00
20231;DHT22;10274;49.022;9.338;2023-05-29T14:38:18;26.90;1.00
20231;DHT22;10274;49.022;9.338;2023-05-29T14:40:44;26.70;1.00
20231;DHT22;10274;49.022;9.338;2023-05-29T14:43:11;26.80;1.00
20231;DHT22;10274;49.022;9.338;2023-05-29T14:45:38;26.70;1.00
20231;DHT22;10274;49.022;9.338;2023-05-29T14:48:05;26.60;1.00
20231;DHT22;10274;49.022;9.338;2023-05-29T14:50:31;26.50;1.00
20231;DHT22;10274;49.022;9.338;2023-05-29T14:52:58;26.60;1.00
20231;DHT22;10274;49.022;9.338;2023-05-29T14:55:26;26.60;1.00
20231;DHT22;10274;49.022;9.338;2023-05-29T14:57:53;26.50;1.00
20231;DHT22;10274;49.022;9.338;2023-05-29T15:00:20;26.40;1.00
20231;DHT22;10274;49.022;9.338;2023-05-29T15:02:46;26.30;1.00
20231;DHT22;10274;49.022;9.338;2023-05-29T15:05:13;26.60;1.00
20231;DHT22;10274;49.022;9.338;2023-05-29T15:07:40;26.40;1.00
20231;DHT22;10274;49.022;9.338;2023-05-29T15:10:07;26.50;1.00
20231;DHT22;10274;49.022;9.338;2023-05-29T15:12:35;26.30;1.00
20231;DHT22;10274;49.022;9.338;2023-05-29T15:15:02;26.30;1.00
20231;DHT22;10274;49.022;9.338;2023-05-29T15:17:29;26.20;1.00
20231;DHT22;10274;49.022;9.338;2023-05-29T15:19:56;26.20;1.00
20231;DHT22;10274;49.022;9.338;2023-05-29T15:22:23;26.10;1.00
20231;DHT22;10274;49.022;9.338;2023-05-29T15:24:49;26.10;1.00
20231;DHT22;10274;49.022;9.338;2023-05-29T15:27:16;26.10;1.00
20231;DHT22;10274;49.022;9.338;2023-05-29T15:29:44;26.00;1.00
20231;DHT22;10274;49.022;9.338;2023-05-29T15:32:11;25.90;1.00
20231;DHT22;10274;49.022;9.338;2023-05-29T15:34:38;25.90;1.00
20231;DHT22;10274;49.022;9.338;2023-05-29T15:37:06;25.90;1.00
20231;DHT22;10274;49.022;9.338;2023-05-29T15:39:32;26.00;1.00
20231;DHT22;10274;49.022;9.338;2023-05-29T15:41:59;26.00;1.00
20231;DHT22;10274;49.022;9.338;2023-05-29T15:44:26;26.00;1.00
20231;DHT22;10274;49.022;9.338;2023-05-29T15:46:54;26.00;1.00
20231;DHT22;10274;49.022;9.338;2023-05-29T15:49:20;25.80;1.00